Latest Weather Observations for Badgingarra

IDW60801

Issued at 6:34 pm WST Thursday 19 January 2017 (issued every 30 minutes, with the page automatically refreshed every 10 minutes)

About weather observations | Map of weather stations | Latest weather observations for WA | Other Formats
Station Details ID: 009037 Name: BADGINGARRA RESEARCH STN Lat: -30.34 Lon: 115.54 Height: 275.0 m
Data from the previous 72 hours. | See also: Recent months at Badgingarra
Date/Time
WST
Temp
°C
App
Temp
°C
Dew
Point
°C
Rel
Hum
%
Delta-T
°C
Wind Press
QNH
hPa
Press
MSL
hPa
Rain since
9am
mm
Dir  Spd
km/h
Gust
km/h
Spd
kts
Gust
kts
19/06:30pm 19.1 12.5 9.9 55 5.0 SSW 35 44 19 24 - - 0.0
19/06:00pm 20.2 12.6 9.2 49 5.9 SSW 39 50 21 27 - - 0.0
19/05:30pm 20.9 13.1 8.2 44 6.7 SSW 39 50 21 27 - - 0.0
19/05:00pm 22.1 14.8 8.9 43 7.1 SSW 37 54 20 29 - - 0.0
19/04:30pm 23.5 15.7 8.4 38 8.1 SSW 39 48 21 26 - - 0.0
19/04:00pm 23.7 16.2 7.8 36 8.5 SSW 37 56 20 30 - - 0.0
19/03:30pm 25.9 18.5 8.4 33 9.5 SSW 37 50 20 27 - - 0.0
19/03:20pm 24.7 17.0 6.9 32 9.4 SSW 37 50 20 27 - - 0.0
19/03:00pm 25.9 19.2 8.0 32 9.7 S 33 48 18 26 - - 0.0
19/02:30pm 25.1 17.5 7.7 33 9.3 S 37 50 20 27 - - 0.0
19/02:00pm 24.9 16.4 7.1 32 9.4 S 41 54 22 29 - - 0.0
19/01:30pm 25.4 18.0 8.4 34 9.3 S 37 52 20 28 - - 0.0
19/01:00pm 25.3 18.0 7.4 32 9.6 SSW 35 46 19 25 - - 0.0
19/12:30pm 24.8 18.5 9.1 37 8.6 SSW 32 44 17 24 - - 0.0
19/12:00pm 24.1 18.0 9.7 40 8.0 SSW 32 43 17 23 - - 0.0
19/11:30am 23.8 17.7 9.8 41 7.7 S 32 44 17 24 - - 0.0
19/11:00am 23.9 18.5 10.9 44 7.3 SSW 30 43 16 23 - - 0.0
19/10:30am 22.5 17.4 10.6 47 6.6 S 28 37 15 20 - - 0.0
19/10:00am 22.0 16.3 11.1 50 6.1 SSW 32 41 17 22 - - 0.0
19/09:30am 22.4 17.1 11.2 49 6.3 S 30 43 16 23 - - 0.0
19/09:00am 20.7 13.9 10.5 52 5.6 SSW 37 46 20 25 - - 0.4
19/08:30am 19.7 12.2 10.7 56 4.9 S 41 52 22 28 - - 0.4
19/08:00am 18.6 12.2 10.7 60 4.3 S 35 50 19 27 - - 0.4
19/07:30am 17.7 11.5 11.3 66 3.5 S 35 46 19 25 - - 0.4
19/07:00am 17.1 10.6 11.6 70 3.0 S 37 48 20 26 - - 0.4
19/06:30am 16.3 10.8 11.9 75 2.4 S 32 41 17 22 - - 0.4
19/06:00am 15.7 10.0 11.9 78 2.1 S 33 44 18 24 - - 0.4
19/05:30am 15.7 7.9 11.7 77 2.2 S 44 56 24 30 - - 0.4
19/05:00am 15.7 8.9 11.9 78 2.1 S 39 52 21 28 - - 0.4
19/04:30am 16.3 10.4 12.5 78 2.1 S 35 46 19 25 - - 0.4
19/04:00am 16.6 10.1 12.9 79 2.1 SSW 39 48 21 26 - - 0.4
19/03:30am 16.7 12.0 13.2 80 2.0 SSW 30 39 16 21 - - 0.4
19/03:00am 16.7 11.8 13.6 82 1.8 S 32 41 17 22 - - 0.4
19/02:30am 16.6 10.7 13.7 83 1.7 S 37 46 20 25 - - 0.4
19/02:00am 16.6 11.6 13.9 84 1.5 S 33 43 18 23 - - 0.4
19/01:30am 17.6 12.8 14.7 83 1.7 S 33 44 18 24 - - 0.4
19/01:00am 17.6 12.0 14.5 82 1.8 S 37 48 20 26 - - 0.4
19/12:30am 17.8 11.5 14.5 81 1.9 SSW 41 52 22 28 - - 0.4
19/12:00am 18.1 13.2 15.2 83 1.7 SSW 35 46 19 25 - - 0.4
 
Date/Time
WST
Temp
°C
App
Temp
°C
Dew
Point
°C
Rel
Hum
%
Delta-T
°C
Wind Press
QNH
hPa
Press
MSL
hPa
Rain since
9am
mm
Dir  Spd
km/h
Gust
km/h
Spd
kts
Gust
kts
18/11:30pm 18.1 12.3 15.0 82 1.8 SSW 39 48 21 26 - - 0.4
18/11:00pm 18.3 11.6 15.2 82 1.8 S 44 59 24 32 - - 0.4
18/10:30pm 18.7 12.4 15.6 82 1.9 SSW 43 52 23 28 - - 0.4
18/10:00pm 18.7 13.1 15.6 82 1.9 S 39 50 21 27 - - 0.4
18/09:30pm 18.9 12.9 15.4 80 2.1 SSW 41 50 22 27 - - 0.4
18/09:00pm 19.3 14.5 15.6 79 2.2 SSW 35 43 19 23 - - 0.4
18/08:30pm 19.9 15.3 16.2 79 2.2 SSW 35 43 19 23 - - 0.4
18/08:00pm 21.0 16.0 15.1 69 3.5 SSW 35 44 19 24 - - 0.4
18/07:30pm 22.6 17.9 14.4 60 4.9 SSW 32 39 17 21 - - 0.4
18/07:00pm 25.1 21.3 13.6 49 6.8 SSW 26 32 14 17 - - 0.4
18/06:30pm 27.1 23.7 13.8 44 8.0 SSW 24 32 13 17 - - 0.4
18/06:00pm 27.6 24.9 14.6 45 7.9 SW 22 30 12 16 - - 0.4
18/05:30pm 29.5 28.2 13.7 38 9.6 SW 13 33 7 18 - - 0.4
18/05:00pm 30.6 32.2 17.0 44 8.7 E 4 7 2 4 - - 0.4
18/04:30pm 31.3 33.3 17.9 44 8.7 SSW 4 11 2 6 - - 0.4
18/04:00pm 30.3 32.8 18.1 48 7.9 SSW 2 7 1 4 - - 0.2
18/03:30pm 28.9 31.0 18.1 52 7.0 NNE 4 9 2 5 - - 0.2
18/03:00pm 27.5 29.1 18.2 57 6.0 NE 7 13 4 7 - - 0.2
18/02:30pm 26.0 27.4 18.7 64 4.7 ENE 9 15 5 8 - - 0.2
18/02:00pm 25.1 24.9 18.5 67 4.2 ENE 17 22 9 12 - - 0.0
18/01:30pm 25.6 25.5 17.0 59 5.4 E 13 19 7 10 - - 0.0
18/01:00pm 26.5 27.1 17.6 58 5.7 ENE 11 19 6 10 - - 0.0
18/12:30pm 26.4 24.7 15.8 52 6.5 ENE 19 26 10 14 - - 0.0
18/12:00pm 25.9 23.3 15.0 51 6.6 ENE 22 30 12 16 - - 0.0
18/11:30am 24.4 22.5 15.3 57 5.5 NE 19 26 10 14 - - 0.0
18/11:00am 27.4 24.0 12.6 40 8.7 ENE 22 32 12 17 - - 0.0
18/10:30am 28.6 24.8 12.5 37 9.5 ENE 24 33 13 18 - - 0.0
18/10:00am 27.3 23.1 12.5 40 8.7 NE 26 35 14 19 - - 0.0
18/09:30am 26.7 22.1 12.4 41 8.4 ENE 28 43 15 23 - - 0.0
18/09:00am 24.3 18.9 12.3 47 6.9 ENE 32 43 17 23 - - 0.0
18/08:30am 23.7 18.2 12.0 48 6.7 ENE 32 43 17 23 - - 0.0
18/08:00am 22.8 17.7 11.8 50 6.3 E 30 43 16 23 - - 0.0
18/07:30am 22.5 16.9 11.6 50 6.2 E 32 48 17 26 - - 0.0
18/07:00am 21.9 16.2 11.0 50 6.1 E 32 41 17 22 - - 0.0
18/06:30am 21.0 15.2 10.8 52 5.7 E 32 43 17 23 - - 0.0
18/06:00am 20.2 14.3 10.3 53 5.4 E 32 41 17 22 - - 0.0
18/05:30am 20.1 14.5 10.2 53 5.4 E 30 41 16 22 - - 0.0
18/05:00am 20.3 15.8 10.1 52 5.6 E 24 41 13 22 - - 0.0
18/04:30am 20.6 15.7 9.8 50 5.9 E 26 37 14 20 - - 0.0
18/04:00am 21.1 16.6 10.0 49 6.1 E 24 33 13 18 - - 0.0
18/03:30am 21.6 17.3 9.5 46 6.6 E 22 35 12 19 - - 0.0
18/03:00am 22.1 17.1 9.6 45 6.8 E 26 35 14 19 - - 0.0
18/02:30am 22.1 17.9 9.6 45 6.8 E 22 33 12 18 - - 0.0
18/02:00am 22.5 17.9 9.6 44 7.1 E 24 35 13 19 - - 0.0
18/01:30am 22.8 18.2 9.6 43 7.2 E 24 30 13 16 - - 0.0
18/01:00am 22.9 18.4 10.0 44 7.1 E 24 32 13 17 - - 0.0
18/12:30am 23.0 18.9 10.1 44 7.1 E 22 30 12 16 - - 0.0
18/12:00am 23.2 18.9 10.6 45 7.0 E 24 35 13 19 - - 0.0
 
Date/Time
WST
Temp
°C
App
Temp
°C
Dew
Point
°C
Rel
Hum
%
Delta-T
°C
Wind Press
QNH
hPa
Press
MSL
hPa
Rain since
9am
mm
Dir  Spd
km/h
Gust
km/h
Spd
kts
Gust
kts
17/11:30pm 23.4 19.8 10.5 44 7.2 ESE 20 30 11 16 - - 0.0
17/11:00pm 23.6 19.9 10.3 43 7.4 ESE 20 28 11 15 - - 0.0
17/10:30pm 23.7 20.3 10.4 43 7.4 ESE 19 26 10 14 - - 0.0
17/10:00pm 22.3 20.2 11.1 49 6.3 SE 13 15 7 8 - - 0.0
17/09:30pm 21.6 20.0 11.6 53 5.6 SSE 11 17 6 9 - - 0.0
17/09:00pm 21.3 20.0 11.3 53 5.6 SSE 9 11 5 6 - - 0.0
17/08:30pm 23.0 21.1 10.4 45 7.0 SSE 11 19 6 10 - - 0.0
17/08:00pm 26.3 23.3 7.8 31 10.0 ESE 13 19 7 10 - - 0.0
17/07:30pm 27.9 23.7 8.2 29 10.8 SE 20 28 11 15 - - 0.0
17/07:00pm 29.0 24.8 8.1 27 11.5 SE 20 30 11 16 - - 0.0
17/06:30pm 30.1 25.6 8.5 26 12.1 ESE 22 32 12 17 - - 0.0
17/06:00pm 31.1 27.2 8.8 25 12.6 ESE 19 28 10 15 - - 0.0
17/05:30pm 31.6 27.6 9.2 25 12.7 ESE 20 30 11 16 - - 0.0
17/05:00pm 31.9 28.0 9.4 25 12.9 ESE 20 28 11 15 - - 0.0
17/04:30pm 31.6 27.4 9.8 26 12.5 ESE 22 32 12 17 - - 0.0
17/04:00pm 31.9 28.2 9.4 25 12.9 SE 19 32 10 17 - - 0.0
17/03:30pm 31.9 27.8 10.0 26 12.6 SE 22 41 12 22 - - 0.0
17/03:00pm 32.8 28.7 11.3 27 12.7 SE 24 33 13 18 - - 0.0
17/02:30pm 32.1 27.6 11.3 28 12.3 SE 26 43 14 23 - - 0.0
17/02:00pm 30.7 26.5 11.1 30 11.4 ESE 24 39 13 21 - - 0.0
17/01:30pm 31.2 26.8 11.6 30 11.6 SE 26 41 14 22 - - 0.0
17/01:00pm 30.2 25.8 11.7 32 10.9 ESE 26 37 14 20 - - 0.0
17/12:30pm 29.6 24.9 12.1 34 10.3 ESE 28 35 15 19 - - 0.0
17/12:00pm 28.6 23.7 12.5 37 9.5 E 30 46 16 25 - - 0.0
17/11:30am 27.9 22.5 12.3 38 9.2 ESE 32 43 17 23 - - 0.0
17/11:00am 27.8 22.4 12.2 38 9.2 ESE 32 46 17 25 - - 0.0
17/10:30am 26.0 20.4 12.1 42 8.1 ESE 33 46 18 25 - - 0.0
17/10:00am 25.3 20.2 11.8 43 7.8 ESE 30 41 16 22 - - 0.0
17/09:30am 24.6 19.4 11.5 44 7.5 ESE 30 39 16 21 - - 0.0
17/09:00am 22.6 16.5 11.7 50 6.2 ESE 35 46 19 25 - - 0.0
17/08:30am 22.2 16.6 11.6 51 6.0 ESE 32 46 17 25 - - 0.0
17/08:00am 20.5 14.3 11.4 56 5.1 ESE 35 48 19 26 - - 0.0
17/07:30am 19.4 13.1 11.2 59 4.5 ESE 35 50 19 27 - - 0.0
17/07:00am 18.6 12.6 10.9 61 4.2 ESE 33 50 18 27 - - 0.0
17/06:30am 17.7 11.8 10.3 62 4.0 SE 32 48 17 26 - - 0.0
17/06:00am 17.2 11.1 9.9 62 3.9 SE 32 43 17 23 - - 0.0
17/05:30am 17.0 11.4 10.1 64 3.7 SE 30 44 16 24 - - 0.0
17/05:00am 16.4 11.5 10.0 66 3.4 SE 26 44 14 24 - - 0.0
17/04:30am 15.2 11.8 11.2 77 2.2 SSE 20 28 11 15 - - 0.0
17/04:00am 15.1 12.0 12.1 82 1.7 SSE 20 26 11 14 - - 0.0
17/03:30am 14.9 12.4 12.4 85 1.4 SSE 17 20 9 11 - - 0.0
17/03:00am 15.2 12.8 12.7 85 1.4 S 17 20 9 11 - - 0.0
17/02:30am 15.5 12.5 12.6 83 1.6 S 20 26 11 14 - - 0.0
17/02:00am 15.4 12.5 12.3 82 1.7 S 19 26 10 14 - - 0.0
17/01:30am 15.6 11.3 12.2 80 1.9 S 26 33 14 18 - - 0.0
17/01:00am 15.7 11.4 12.1 79 2.0 S 26 32 14 17 - - 0.0
17/12:30am 16.1 11.1 12.3 78 2.1 S 30 39 16 21 - - 0.0
17/12:00am 16.4 10.4 12.2 76 2.3 S 35 43 19 23 - - 0.0
 
Date/Time
WST
Temp
°C
App
Temp
°C
Dew
Point
°C
Rel
Hum
%
Delta-T
°C
Wind Press
QNH
hPa
Press
MSL
hPa
Rain since
9am
mm
Dir  Spd
km/h
Gust
km/h
Spd
kts
Gust
kts
16/11:30pm 16.8 10.4 12.1 74 2.6 S 37 46 20 25 - - 0.0
16/11:00pm 17.2 10.8 12.1 72 2.8 S 37 48 20 26 - - 0.0
16/10:30pm 17.7 11.3 11.9 69 3.2 S 37 46 20 25 - - 0.0
16/10:00pm 17.7 10.8 11.5 67 3.4 S 39 48 21 26 - - 0.0
16/09:30pm 17.7 9.9 11.3 66 3.5 S 43 52 23 28 - - 0.0
16/09:00pm 18.0 10.2 11.1 64 3.8 S 43 52 23 28 - - 0.0
16/08:30pm 18.5 10.5 11.1 62 4.1 S 44 54 24 29 - - 0.0
16/08:00pm 19.1 12.1 11.2 60 4.4 SSW 39 48 21 26 - - 0.0
16/07:30pm 19.9 13.7 11.4 58 4.7 SSW 35 44 19 24 - - 0.0
16/07:00pm 20.4 13.4 11.3 56 5.1 S 39 48 21 26 - - 0.0

Other Formats:

Comma delimited format used in spreadsheet applications
http://www.bom.gov.au/fwo/IDW60801/IDW60801.94603.axf

JavaScript Object Notation format (JSON) in row-major order
http://www.bom.gov.au/fwo/IDW60801/IDW60801.94603.json